createdAt,value
2022-12-08T00:01:35.345Z,9.52
2022-12-08T00:04:04.461Z,10.27
2022-12-08T00:06:55.770Z,8.45
2022-12-08T00:09:41.707Z,11.48
2022-12-08T00:12:16.705Z,11.63
2022-12-08T00:14:47.272Z,11.45
2022-12-08T00:17:16.950Z,12.13
2022-12-08T00:19:45.165Z,9.68
2022-12-08T00:22:15.237Z,11.55
2022-12-08T00:24:47.234Z,9.00
2022-12-08T00:27:16.298Z,12.68
2022-12-08T00:29:46.523Z,11.77
2022-12-08T00:32:13.540Z,10.45
2022-12-08T00:34:40.487Z,11.75
2022-12-08T00:37:07.304Z,12.30
2022-12-08T00:39:34.265Z,12.50
2022-12-08T00:42:12.918Z,12.95
2022-12-08T00:44:45.046Z,10.93
2022-12-08T00:47:13.806Z,8.15
2022-12-08T00:49:41.359Z,12.70
2022-12-08T00:52:08.609Z,11.52
2022-12-08T00:54:35.688Z,11.20
2022-12-08T00:57:02.738Z,12.80
2022-12-08T00:59:29.572Z,13.65
2022-12-08T01:01:56.554Z,12.88
2022-12-08T01:04:23.418Z,12.10
2022-12-08T01:06:50.466Z,11.52
2022-12-08T01:09:18.731Z,11.35
2022-12-08T01:11:46.136Z,17.58
2022-12-08T01:14:14.197Z,12.43
2022-12-08T01:16:41.615Z,10.57
2022-12-08T01:19:12.361Z,12.75
2022-12-08T01:21:40.667Z,13.82
2022-12-08T01:24:11.768Z,12.68
2022-12-08T01:26:40.306Z,11.18
2022-12-08T01:29:07.266Z,13.40
2022-12-08T01:31:34.048Z,14.55
2022-12-08T01:34:01.007Z,10.73
2022-12-08T01:36:31.395Z,12.88
2022-12-08T01:39:02.202Z,12.15
2022-12-08T01:44:12.643Z,10.20
2022-12-08T01:46:45.223Z,11.05
2022-12-08T01:49:29.582Z,10.73
2022-12-08T01:52:11.103Z,11.73
2022-12-08T01:54:47.411Z,10.70
2022-12-08T01:57:29.395Z,13.80
2022-12-08T02:00:13.882Z,11.80
2022-12-08T02:03:06.440Z,9.18
2022-12-08T02:05:41.127Z,9.98
2022-12-08T02:08:12.791Z,11.35
2022-12-08T02:10:43.084Z,12.25
2022-12-08T02:13:17.526Z,10.95
2022-12-08T02:16:27.596Z,10.02
2022-12-08T02:22:27.858Z,10.57
2022-12-08T02:25:11.911Z,10.23
2022-12-08T02:28:00.528Z,11.40
2022-12-08T02:30:54.095Z,11.25
2022-12-08T02:34:03.827Z,13.27
2022-12-08T02:36:57.370Z,11.77
2022-12-08T02:39:48.208Z,11.80
2022-12-08T02:42:43.568Z,13.45
2022-12-08T02:45:47.627Z,12.60
2022-12-08T02:48:15.779Z,11.63
2022-12-08T02:50:42.894Z,12.45
2022-12-08T02:55:49.372Z,13.65
2022-12-08T02:59:04.504Z,10.93
2022-12-08T03:01:59.448Z,9.60
2022-12-08T03:04:31.783Z,10.85
2022-12-08T03:07:38.678Z,8.75
2022-12-08T03:10:37.354Z,9.75
2022-12-08T03:13:11.528Z,11.60
2022-12-08T03:15:41.195Z,11.13
2022-12-08T03:18:14.960Z,12.63
2022-12-08T03:20:44.267Z,9.32
2022-12-08T03:23:16.154Z,9.77
2022-12-08T03:25:58.129Z,9.38
2022-12-08T03:28:25.685Z,10.57
2022-12-08T03:30:59.494Z,12.20
2022-12-08T03:33:33.435Z,10.15
2022-12-08T03:36:04.277Z,9.73
2022-12-08T03:41:19.751Z,7.38
2022-12-08T03:43:52.129Z,7.65
2022-12-08T03:48:49.615Z,11.35
2022-12-08T03:51:17.243Z,9.90
2022-12-08T03:53:44.902Z,10.60
2022-12-08T03:56:24.107Z,8.85
2022-12-08T03:58:51.536Z,8.77
2022-12-08T04:01:18.553Z,10.52
2022-12-08T04:03:45.408Z,10.05
2022-12-08T04:06:12.501Z,11.60
2022-12-08T04:08:39.503Z,10.13
2022-12-08T04:11:06.698Z,10.55
2022-12-08T04:13:36.190Z,9.98
2022-12-08T04:16:03.562Z,10.02
2022-12-08T04:18:30.659Z,8.25
2022-12-08T04:20:57.580Z,8.85
2022-12-08T04:23:24.553Z,7.88
2022-12-08T04:25:53.045Z,9.27
2022-12-08T04:28:20.005Z,8.90
2022-12-08T04:30:49.364Z,9.52
2022-12-08T04:33:16.959Z,8.52
2022-12-08T04:35:44.189Z,11.55
2022-12-08T04:38:11.254Z,11.27
2022-12-08T04:40:38.189Z,11.38
2022-12-08T04:43:06.567Z,10.55
2022-12-08T04:45:33.494Z,9.13
2022-12-08T04:48:02.252Z,13.18
2022-12-08T04:50:29.130Z,10.85
2022-12-08T04:52:55.967Z,13.18
2022-12-08T04:55:22.789Z,12.55
2022-12-08T04:57:50.110Z,10.32
2022-12-08T05:00:17.700Z,11.70
2022-12-08T05:02:44.702Z,9.45
2022-12-08T05:05:11.630Z,11.40
2022-12-08T05:07:38.601Z,8.93
2022-12-08T05:10:06.843Z,10.82
2022-12-08T05:12:34.057Z,9.07
2022-12-08T05:15:00.894Z,14.13
2022-12-08T05:17:27.697Z,10.75
2022-12-08T05:19:54.564Z,10.38
2022-12-08T05:22:21.525Z,14.23
2022-12-08T05:24:48.441Z,12.55
2022-12-08T05:27:15.897Z,10.68
2022-12-08T05:29:42.832Z,12.80
2022-12-08T05:32:09.753Z,10.55
2022-12-08T05:34:36.723Z,11.80
2022-12-08T05:37:03.572Z,9.45
2022-12-08T05:39:31.072Z,11.02
2022-12-08T05:41:57.994Z,13.23
2022-12-08T05:44:24.898Z,12.38
2022-12-08T05:46:51.968Z,12.00
2022-12-08T05:49:19.129Z,10.30
2022-12-08T05:51:45.960Z,11.77
2022-12-08T05:54:12.803Z,10.30
2022-12-08T05:56:39.671Z,12.88
2022-12-08T05:59:07.741Z,11.77
2022-12-08T06:01:35.429Z,12.93
2022-12-08T06:04:04.268Z,12.10
2022-12-08T06:06:34.059Z,12.13
2022-12-08T06:09:04.345Z,13.63
2022-12-08T06:11:32.826Z,12.52
2022-12-08T06:13:59.989Z,14.23
2022-12-08T06:16:28.929Z,16.08
2022-12-08T06:18:56.820Z,13.35
2022-12-08T06:21:24.459Z,11.68
2022-12-08T06:23:53.673Z,10.50
2022-12-08T06:26:22.030Z,11.60
2022-12-08T06:28:49.927Z,13.27
2022-12-08T06:31:24.459Z,14.13
2022-12-08T06:33:51.962Z,12.73
2022-12-08T06:36:22.545Z,11.23
2022-12-08T06:38:49.866Z,12.32
2022-12-08T06:41:17.752Z,11.25
2022-12-08T06:43:45.131Z,10.90
2022-12-08T06:46:17.836Z,11.52
2022-12-08T06:48:44.978Z,11.82
2022-12-08T06:51:16.119Z,10.57
2022-12-08T06:53:44.769Z,12.20
2022-12-08T06:56:13.201Z,10.40
2022-12-08T06:58:40.431Z,11.05
2022-12-08T07:01:13.449Z,10.60
2022-12-08T07:03:41.682Z,12.95
2022-12-08T07:06:08.608Z,10.32
2022-12-08T07:08:35.720Z,11.35
2022-12-08T07:11:12.381Z,11.15
2022-12-08T07:13:41.054Z,11.15
2022-12-08T07:16:10.243Z,9.07
2022-12-08T07:18:38.041Z,10.95
2022-12-08T07:21:11.276Z,10.95
2022-12-08T07:23:38.586Z,9.45
2022-12-08T07:26:09.736Z,12.05
2022-12-08T07:28:39.492Z,10.07
2022-12-08T07:31:09.458Z,15.65
2022-12-08T07:33:36.344Z,12.77
2022-12-08T07:36:06.541Z,12.57
2022-12-08T07:38:33.863Z,12.68
2022-12-08T07:41:00.958Z,10.60
2022-12-08T07:43:27.993Z,15.30
2022-12-08T07:45:54.904Z,16.67
2022-12-08T07:48:21.880Z,15.75
2022-12-08T07:50:48.875Z,11.65
2022-12-08T07:53:15.696Z,16.23
2022-12-08T07:55:44.129Z,14.65
2022-12-08T07:58:11.739Z,15.43
2022-12-08T08:00:38.685Z,13.07
2022-12-08T08:03:06.302Z,17.77
2022-12-08T08:05:33.164Z,14.02
2022-12-08T08:08:00.084Z,14.05
2022-12-08T08:10:27.151Z,15.68
2022-12-08T08:12:53.960Z,12.20
2022-12-08T08:15:21.340Z,14.80
2022-12-08T08:17:52.156Z,15.85
2022-12-08T08:20:20.836Z,13.48
2022-12-08T08:22:50.157Z,13.85
2022-12-08T08:25:18.962Z,13.95
2022-12-08T08:27:46.674Z,15.88
2022-12-08T08:30:20.471Z,13.48
2022-12-08T08:32:49.482Z,12.27
2022-12-08T08:35:16.918Z,13.15
2022-12-08T08:37:48.556Z,11.88
2022-12-08T08:40:17.645Z,11.18
2022-12-08T08:42:44.465Z,13.27
2022-12-08T08:45:11.997Z,12.30
2022-12-08T08:47:38.828Z,13.82
2022-12-08T08:50:07.122Z,11.43
2022-12-08T08:52:34.562Z,10.85
2022-12-08T08:55:01.708Z,11.98
2022-12-08T08:57:28.664Z,12.05
2022-12-08T08:59:55.613Z,12.80
2022-12-08T09:02:22.623Z,12.63
2022-12-08T09:04:49.750Z,11.35
2022-12-08T09:07:16.646Z,9.15
2022-12-08T09:09:43.903Z,11.90
2022-12-08T09:12:12.066Z,11.50
2022-12-08T09:14:39.506Z,10.05
2022-12-08T09:17:07.470Z,9.65
2022-12-08T09:19:34.690Z,12.07
2022-12-08T09:22:01.525Z,10.23
2022-12-08T09:24:28.337Z,10.43
2022-12-08T09:26:55.203Z,10.70
2022-12-08T09:29:22.076Z,12.52
2022-12-08T09:31:49.016Z,10.32
2022-12-08T09:34:15.929Z,9.73
2022-12-08T09:36:42.874Z,8.35
2022-12-08T09:39:09.740Z,8.90
2022-12-08T09:41:48.369Z,7.50
2022-12-08T09:44:45.981Z,9.43
2022-12-08T09:47:42.677Z,7.85
2022-12-08T09:50:30.582Z,6.65
2022-12-08T09:53:14.129Z,9.63
2022-12-08T09:55:57.793Z,7.68
2022-12-08T09:58:55.488Z,7.78
2022-12-08T10:01:27.469Z,8.55
2022-12-08T10:03:55.985Z,8.07
2022-12-08T10:06:41.144Z,8.13
2022-12-08T10:10:00.093Z,8.57
2022-12-08T10:12:44.872Z,16.05
2022-12-08T10:15:52.402Z,16.73
2022-12-08T10:18:28.180Z,10.07
2022-12-08T10:21:11.758Z,8.55
2022-12-08T10:23:43.021Z,14.63
2022-12-08T10:26:16.965Z,12.80
2022-12-08T10:28:45.332Z,12.05
2022-12-08T10:31:25.326Z,11.43
2022-12-08T10:34:01.821Z,11.45
2022-12-08T10:36:53.760Z,11.60
2022-12-08T10:39:41.112Z,12.15
2022-12-08T10:42:17.092Z,14.70
2022-12-08T10:45:18.211Z,10.88
2022-12-08T10:50:41.937Z,9.30
2022-12-08T10:53:08.684Z,11.18
2022-12-08T10:55:47.131Z,13.63
2022-12-08T10:58:35.693Z,12.50
2022-12-08T11:01:18.407Z,12.63
2022-12-08T11:03:52.214Z,13.00
2022-12-08T11:06:38.261Z,13.07
2022-12-08T11:09:17.226Z,12.52
2022-12-08T11:12:07.169Z,11.90
2022-12-08T11:14:54.766Z,12.98
2022-12-08T11:17:29.475Z,15.25
2022-12-08T11:20:09.985Z,13.45
2022-12-08T11:23:04.925Z,15.98
2022-12-08T11:25:31.809Z,12.40
2022-12-08T11:28:01.675Z,12.50
2022-12-08T11:30:38.968Z,12.93
2022-12-08T11:33:27.849Z,13.10
2022-12-08T11:36:11.425Z,13.93
2022-12-08T11:38:45.933Z,15.00
2022-12-08T11:41:19.853Z,12.10
2022-12-08T11:44:13.608Z,13.70
2022-12-08T11:46:56.597Z,14.75
2022-12-08T11:49:39.466Z,15.98
2022-12-08T11:52:29.530Z,12.75
2022-12-08T11:55:42.700Z,14.97
2022-12-08T11:58:18.652Z,11.52
2022-12-08T12:00:45.907Z,13.32
2022-12-08T12:03:40.648Z,12.65
2022-12-08T12:07:02.918Z,15.65
2022-12-08T12:10:25.228Z,10.68
2022-12-08T12:13:35.697Z,12.68
2022-12-08T12:16:52.161Z,10.30
2022-12-08T12:19:22.568Z,10.38
2022-12-08T12:21:55.696Z,10.80
2022-12-08T12:24:31.625Z,14.00
2022-12-08T12:27:28.971Z,12.70
2022-12-08T12:30:04.115Z,12.68
2022-12-08T12:32:53.948Z,13.77
2022-12-08T12:35:35.916Z,13.35
2022-12-08T12:38:51.552Z,13.13
2022-12-08T12:41:38.367Z,14.55
2022-12-08T12:44:37.930Z,15.70
2022-12-08T12:47:11.829Z,14.60
2022-12-08T12:49:45.804Z,12.75
2022-12-08T12:52:15.804Z,17.35
2022-12-08T12:54:49.561Z,17.13
2022-12-08T12:57:19.447Z,11.35
2022-12-08T13:00:08.138Z,10.57
2022-12-08T13:02:50.051Z,14.10
2022-12-08T13:05:23.760Z,11.50
2022-12-08T13:08:21.318Z,12.43
2022-12-08T13:11:09.097Z,15.68
2022-12-08T13:14:03.646Z,15.65
2022-12-08T13:16:39.980Z,13.70
2022-12-08T13:19:16.029Z,14.15
2022-12-08T13:21:43.215Z,15.07
2022-12-08T13:24:33.714Z,18.50
2022-12-08T13:27:03.531Z,15.02
2022-12-08T13:29:32.813Z,19.63
2022-12-08T13:32:05.234Z,18.75
2022-12-08T13:34:45.525Z,23.55
2022-12-08T13:37:12.386Z,26.38
2022-12-08T13:39:39.097Z,20.67
2022-12-08T13:42:40.997Z,29.17
2022-12-08T13:48:56.205Z,21.50
2022-12-08T13:57:29.994Z,19.00
2022-12-08T14:00:05.151Z,29.92
2022-12-08T14:02:47.101Z,29.17
2022-12-08T14:05:19.370Z,29.92
2022-12-08T14:07:51.979Z,21.10
2022-12-08T14:10:27.750Z,21.00
2022-12-08T14:13:14.257Z,22.00
2022-12-08T14:15:41.168Z,21.65
2022-12-08T14:18:29.164Z,22.88
2022-12-08T14:21:20.943Z,27.80
2022-12-08T14:23:48.681Z,24.10
2022-12-08T14:26:15.471Z,21.15
2022-12-08T14:28:45.204Z,16.33
2022-12-08T14:31:14.635Z,19.30
2022-12-08T14:33:42.497Z,14.90
2022-12-08T14:36:10.968Z,15.00
2022-12-08T14:38:37.903Z,15.05
2022-12-08T14:41:08.637Z,14.82
2022-12-08T14:43:35.873Z,15.13
2022-12-08T14:46:18.538Z,15.90
2022-12-08T14:48:45.494Z,15.10
2022-12-08T14:51:20.964Z,19.15
2022-12-08T14:54:17.502Z,14.90
2022-12-08T14:56:56.857Z,19.55
2022-12-08T14:59:30.225Z,25.85
2022-12-08T15:02:21.592Z,20.48
2022-12-08T15:04:58.334Z,15.93
2022-12-08T15:07:34.340Z,15.45
2022-12-08T15:10:16.227Z,13.73
2022-12-08T15:13:21.981Z,12.85
2022-12-08T15:15:54.571Z,11.02
2022-12-08T15:18:40.747Z,12.27
2022-12-08T15:21:12.756Z,10.95
2022-12-08T15:23:50.319Z,15.50
2022-12-08T15:26:26.359Z,15.45
2022-12-08T15:28:54.950Z,12.95
2022-12-08T15:31:21.960Z,14.73
2022-12-08T15:33:48.859Z,14.38
2022-12-08T15:36:15.718Z,12.85
2022-12-08T15:38:43.654Z,18.00
2022-12-08T15:41:14.884Z,14.02
2022-12-08T15:43:42.267Z,14.90
2022-12-08T15:46:09.161Z,12.05
2022-12-08T15:48:37.835Z,11.48
2022-12-08T15:51:05.027Z,14.65
2022-12-08T15:53:31.893Z,16.30
2022-12-08T15:58:56.995Z,21.88
2022-12-08T16:01:25.809Z,14.07
2022-12-08T16:04:36.997Z,16.40
2022-12-08T16:09:40.538Z,16.60
2022-12-08T16:13:48.090Z,17.88
2022-12-08T16:18:26.313Z,16.70
2022-12-08T16:23:44.875Z,18.67
2022-12-08T16:27:28.472Z,15.50
2022-12-08T16:29:21.008Z,14.18
2022-12-08T16:31:48.800Z,20.88
2022-12-08T16:34:15.714Z,20.77
2022-12-08T16:36:42.537Z,22.73
2022-12-08T16:39:13.948Z,23.23
2022-12-08T16:41:59.297Z,22.00
2022-12-08T16:44:27.229Z,23.48
2022-12-08T16:46:54.072Z,22.90
2022-12-08T16:49:21.096Z,15.55
2022-12-08T16:51:48.270Z,17.58
2022-12-08T16:54:15.521Z,23.13
2022-12-08T16:56:43.237Z,20.67
2022-12-08T16:59:10.130Z,19.30
2022-12-08T17:01:37.278Z,17.58
2022-12-08T17:06:53.135Z,20.08
2022-12-08T17:09:20.149Z,18.48
2022-12-08T17:11:47.103Z,17.30
2022-12-08T17:14:14.624Z,19.45
2022-12-08T17:16:43.301Z,21.48
2022-12-08T17:19:12.860Z,21.08
2022-12-08T17:21:39.856Z,20.67
2022-12-08T17:24:06.807Z,21.83
2022-12-08T17:26:34.589Z,17.17
2022-12-08T17:29:04.438Z,25.08
2022-12-08T17:31:33.277Z,23.65
2022-12-08T17:34:02.067Z,21.35
2022-12-08T17:36:29.032Z,17.15
2022-12-08T17:38:57.040Z,19.15
2022-12-08T17:41:23.935Z,20.35
2022-12-08T17:43:51.344Z,20.52
2022-12-08T17:46:20.344Z,22.67
2022-12-08T17:48:47.549Z,17.65
2022-12-08T17:51:16.155Z,23.13
2022-12-08T17:53:43.236Z,23.30
2022-12-08T17:56:21.495Z,21.58
2022-12-08T17:58:54.355Z,20.77
2022-12-08T18:01:23.029Z,25.35
2022-12-08T18:03:50.010Z,30.08
2022-12-08T18:06:17.727Z,29.50
2022-12-08T18:08:45.023Z,26.55
2022-12-08T18:11:17.733Z,29.63
2022-12-08T18:13:46.605Z,32.20
2022-12-08T18:16:15.187Z,29.45
2022-12-08T18:18:42.358Z,29.30
2022-12-08T18:21:09.527Z,28.10
2022-12-08T18:23:41.812Z,32.30
2022-12-08T18:26:12.042Z,30.20
2022-12-08T18:28:39.420Z,26.17
2022-12-08T18:31:19.687Z,28.58
2022-12-08T18:33:48.504Z,28.85
2022-12-08T18:36:20.121Z,27.20
2022-12-08T18:38:47.596Z,32.70
2022-12-08T18:41:21.341Z,34.15
2022-12-08T18:43:48.168Z,34.78
2022-12-08T18:46:15.270Z,32.25
2022-12-08T18:48:48.803Z,32.63
2022-12-08T18:51:22.529Z,32.03
2022-12-08T18:53:51.308Z,35.42
2022-12-08T18:56:20.887Z,35.60
2022-12-08T18:58:47.979Z,31.33
2022-12-08T19:01:15.354Z,37.45
2022-12-08T19:03:52.727Z,37.75
2022-12-08T19:06:30.027Z,36.45
2022-12-08T19:08:57.128Z,34.60
2022-12-08T19:11:27.667Z,27.27
2022-12-08T19:13:55.617Z,35.88
2022-12-08T19:16:23.815Z,40.92
2022-12-08T19:18:50.802Z,35.22
2022-12-08T19:21:17.686Z,36.25
2022-12-08T19:23:44.553Z,35.30
2022-12-08T19:26:12.209Z,32.60
2022-12-08T19:28:41.046Z,34.25
2022-12-08T19:31:10.035Z,37.20
2022-12-08T19:33:39.046Z,32.90
2022-12-08T19:36:14.270Z,35.95
2022-12-08T19:39:00.154Z,32.35
2022-12-08T19:41:46.211Z,31.33
2022-12-08T19:44:45.721Z,31.17
2022-12-08T19:47:12.577Z,30.95
2022-12-08T19:49:39.696Z,34.00
2022-12-08T19:52:07.627Z,36.58
2022-12-08T19:54:34.672Z,34.58
2022-12-08T19:57:01.971Z,32.85
2022-12-08T19:59:30.306Z,34.45
2022-12-08T20:01:58.743Z,34.95
2022-12-08T20:04:27.338Z,31.77
2022-12-08T20:06:56.941Z,31.60
2022-12-08T20:09:25.050Z,34.85
2022-12-08T20:11:54.632Z,35.80
2022-12-08T20:14:23.297Z,37.47
2022-12-08T20:16:51.025Z,27.13
2022-12-08T20:19:18.504Z,31.38
2022-12-08T20:21:45.559Z,29.33
2022-12-08T20:24:12.447Z,29.65
2022-12-08T20:26:39.343Z,27.58
2022-12-08T20:29:06.235Z,29.48
2022-12-08T20:31:33.825Z,31.10
2022-12-08T20:34:01.515Z,32.83
2022-12-08T20:36:28.803Z,31.42
2022-12-08T20:38:56.105Z,27.85
2022-12-08T20:41:23.658Z,30.85
2022-12-08T20:43:51.788Z,32.55
2022-12-08T20:46:21.238Z,32.17
2022-12-08T20:48:48.729Z,32.00
2022-12-08T20:51:18.815Z,32.83
2022-12-08T20:53:46.759Z,34.85
2022-12-08T20:56:19.218Z,34.85
2022-12-08T20:58:46.388Z,38.35
2022-12-08T21:01:16.653Z,33.42
2022-12-08T21:03:45.255Z,33.17
2022-12-08T21:06:13.474Z,28.20
2022-12-08T21:08:41.937Z,28.85
2022-12-08T21:11:10.366Z,30.40
2022-12-08T21:13:38.221Z,26.27
2022-12-08T21:16:09.153Z,36.70
2022-12-08T21:18:39.762Z,29.00
2022-12-08T21:21:12.235Z,29.52
2022-12-08T21:23:40.513Z,25.60
2022-12-08T21:26:15.064Z,27.38
2022-12-08T21:28:43.569Z,21.88
2022-12-08T21:31:13.908Z,22.33
2022-12-08T21:33:41.237Z,21.42
2022-12-08T21:36:18.379Z,21.63
2022-12-08T21:38:46.586Z,24.23
2022-12-08T21:41:39.414Z,25.27
2022-12-08T21:44:10.311Z,30.00
2022-12-08T21:46:38.514Z,29.80
2022-12-08T21:49:05.783Z,37.42
2022-12-08T21:51:35.082Z,32.67
2022-12-08T21:54:02.001Z,28.67
2022-12-08T21:56:28.927Z,25.95
2022-12-08T21:58:56.206Z,31.73
2022-12-08T22:01:23.230Z,30.63
2022-12-08T22:03:50.705Z,26.05
2022-12-08T22:06:17.753Z,28.50
2022-12-08T22:08:45.412Z,47.63
2022-12-08T22:11:13.567Z,39.47
2022-12-08T22:13:42.008Z,31.48
2022-12-08T22:16:12.113Z,27.45
2022-12-08T22:18:39.263Z,30.13
2022-12-08T22:21:18.352Z,29.70
2022-12-08T22:23:45.701Z,24.40
2022-12-08T22:26:13.131Z,27.35
2022-12-08T22:28:44.840Z,27.98
2022-12-08T22:31:15.019Z,33.00
2022-12-08T22:33:43.575Z,31.10
2022-12-08T22:36:24.256Z,23.85
2022-12-08T22:38:53.635Z,24.65
2022-12-08T22:41:22.190Z,22.70
2022-12-08T22:43:50.299Z,25.75
2022-12-08T22:46:21.525Z,23.58
2022-12-08T22:48:49.595Z,24.98
2022-12-08T22:51:17.718Z,21.33
2022-12-08T22:53:45.383Z,21.05
2022-12-08T22:56:15.001Z,20.40
2022-12-08T22:58:44.514Z,18.58
2022-12-08T23:01:29.054Z,17.73
2022-12-08T23:03:57.592Z,15.93
2022-12-08T23:06:26.200Z,20.20
2022-12-08T23:08:56.570Z,19.95
2022-12-08T23:11:27.956Z,17.88
2022-12-08T23:13:56.345Z,17.00
2022-12-08T23:16:23.517Z,16.17
2022-12-08T23:18:50.470Z,20.08
2022-12-08T23:21:19.887Z,17.98
2022-12-08T23:23:47.751Z,17.10
2022-12-08T23:26:28.120Z,15.70
2022-12-08T23:28:56.990Z,15.40
2022-12-08T23:31:25.575Z,15.90
2022-12-08T23:33:54.243Z,18.77
2022-12-08T23:36:26.249Z,15.82
2022-12-08T23:38:54.969Z,16.50
2022-12-08T23:41:22.238Z,16.30
2022-12-08T23:43:51.408Z,16.20
2022-12-08T23:46:21.816Z,17.17
2022-12-08T23:48:51.381Z,18.25
2022-12-08T23:51:19.152Z,15.50
2022-12-08T23:53:46.420Z,13.02
2022-12-08T23:56:17.382Z,13.63
2022-12-08T23:58:45.098Z,11.15
